Azle, Texas
Current Conditions -  °F | °C
As of 2:52 PM on Saturday 25 Oct 2014 (Local Time) from KNFW Reporting Station
Clear Clear  
Wind Chill: 33°   Ceiling: Unl
Heat Index: 33°   Visibility: 10mi
Dew Point: 14°   Wind: 5mph
Humidity: 33%   Direction: NA
Pressure: 30.11"   Gusts: NA
Location:  32.88°N, 97.54°W
Report Text: KNFW 251952Z VRB04KT 10SM CLR 33/14 A3011 RMK AO2 SLP179 T03280144 CHINO N VISNO N $
Loading
Personal Weather Stations






























Interactive Weather Map
Tropical Storm Tracking
New forecast layout! Learn more

10-Day Weather Forecast

Advertisements
Track Severe Weather on mobile